createdAt,value
2019-02-09T00:00:56.654Z,78.77
2019-02-09T00:06:41.243Z,76.37
2019-02-09T00:12:25.581Z,82.13
2019-02-09T00:18:10.234Z,83.17
2019-02-09T00:20:38.506Z,93.20
2019-02-09T00:23:07.487Z,65.13
2019-02-09T00:28:40.098Z,87.80
2019-02-09T00:31:08.512Z,68.17
2019-02-09T00:33:37.124Z,70.90
2019-02-09T00:36:05.419Z,92.93
2019-02-09T00:38:33.904Z,93.70
2019-02-09T00:41:02.199Z,79.40
2019-02-09T00:46:47.055Z,70.00
2019-02-09T00:49:15.671Z,92.10
2019-02-09T00:51:44.007Z,69.67
2019-02-09T00:54:12.480Z,88.90
2019-02-09T00:56:40.795Z,52.87
2019-02-09T00:59:09.269Z,62.87
2019-02-09T01:04:42.046Z,66.77
2019-02-09T01:07:10.632Z,65.53
2019-02-09T01:09:39.134Z,76.63
2019-02-09T01:12:07.526Z,67.27
2019-02-09T01:14:35.994Z,64.60
2019-02-09T01:17:04.780Z,69.13
2019-02-09T01:19:33.259Z,70.33
2019-02-09T01:22:01.886Z,66.87
2019-02-09T01:24:30.179Z,60.37
2019-02-09T01:26:58.478Z,67.23
2019-02-09T01:29:26.973Z,69.20
2019-02-09T01:31:55.316Z,68.27
2019-02-09T01:34:23.878Z,75.40
2019-02-09T01:36:52.240Z,65.93
2019-02-09T01:39:20.565Z,69.60
2019-02-09T01:41:48.994Z,59.63
2019-02-09T01:44:17.388Z,63.40
2019-02-09T01:46:45.837Z,67.37
2019-02-09T01:49:14.139Z,68.57
2019-02-09T01:51:42.519Z,45.90
2019-02-09T01:57:28.316Z,65.33
2019-02-09T01:59:56.695Z,34.93
2019-02-09T02:02:25.186Z,60.53
2019-02-09T02:04:53.646Z,67.83
2019-02-09T02:07:21.897Z,63.07
2019-02-09T02:09:50.159Z,48.87
2019-02-09T02:12:18.538Z,68.53
2019-02-09T02:14:46.961Z,74.27
2019-02-09T02:17:15.346Z,61.23
2019-02-09T02:19:43.644Z,51.60
2019-02-09T02:22:12.114Z,55.10
2019-02-09T02:24:40.490Z,53.83
2019-02-09T02:27:08.910Z,39.83
2019-02-09T02:29:38.380Z,55.00
2019-02-09T02:32:07.055Z,57.53
2019-02-09T02:34:35.438Z,65.63
2019-02-09T02:37:03.791Z,51.20
2019-02-09T02:39:32.426Z,67.60
2019-02-09T02:42:00.900Z,59.73
2019-02-09T02:44:29.206Z,68.97
2019-02-09T02:46:57.586Z,58.97
2019-02-09T02:49:25.943Z,55.23
2019-02-09T02:51:54.414Z,37.53
2019-02-09T02:54:22.750Z,54.10
2019-02-09T02:56:51.075Z,41.90
2019-02-09T02:59:19.449Z,56.13
2019-02-09T03:01:47.709Z,67.17
2019-02-09T03:04:16.042Z,53.07
2019-02-09T03:06:44.411Z,55.70
2019-02-09T03:09:12.954Z,55.40
2019-02-09T03:11:41.375Z,59.63
2019-02-09T03:14:09.811Z,43.77
2019-02-09T03:16:38.219Z,43.93
2019-02-09T03:19:06.392Z,60.47
2019-02-09T03:21:34.639Z,43.93
2019-02-09T03:24:02.984Z,47.90
2019-02-09T03:26:31.382Z,51.40
2019-02-09T03:28:59.798Z,56.07
2019-02-09T03:34:43.642Z,55.93
2019-02-09T03:40:28.753Z,38.13
2019-02-09T03:42:57.144Z,62.23
2019-02-09T03:45:26.538Z,66.87
2019-02-09T03:51:11.079Z,40.33
2019-02-09T03:53:39.658Z,60.00
2019-02-09T03:56:08.070Z,54.23
2019-02-09T04:01:52.440Z,46.17
2019-02-09T04:04:21.614Z,52.13
2019-02-09T04:06:50.017Z,55.00
2019-02-09T04:09:18.295Z,32.33
2019-02-09T04:11:46.674Z,60.43
2019-02-09T04:14:15.053Z,57.77
2019-02-09T04:16:43.405Z,67.77
2019-02-09T04:22:27.574Z,46.50
2019-02-09T04:28:11.997Z,49.93
2019-02-09T04:30:40.351Z,53.77
2019-02-09T04:36:25.053Z,43.13
2019-02-09T04:38:53.421Z,44.33
2019-02-09T04:41:21.702Z,57.07
2019-02-09T04:47:06.063Z,54.57
2019-02-09T04:52:50.277Z,38.83
2019-02-09T04:58:34.115Z,31.10
2019-02-09T05:04:18.613Z,56.77
2019-02-09T05:09:51.596Z,33.73
2019-02-09T05:12:19.868Z,21.80
2019-02-09T05:14:48.366Z,32.13
2019-02-09T05:17:16.646Z,50.13
2019-02-09T05:19:44.833Z,64.57
2019-02-09T05:22:13.294Z,39.37
2019-02-09T05:24:41.658Z,50.40
2019-02-09T05:30:27.603Z,38.10
2019-02-09T05:32:56.179Z,51.37
2019-02-09T05:35:25.592Z,51.80
2019-02-09T05:37:54.003Z,34.73
2019-02-09T05:40:23.074Z,37.97
2019-02-09T05:46:07.553Z,36.83
2019-02-09T05:48:35.814Z,40.13
2019-02-09T05:51:04.292Z,41.03
2019-02-09T05:53:32.687Z,45.10
2019-02-09T05:56:01.045Z,44.20
2019-02-09T06:01:34.360Z,34.30
2019-02-09T06:04:02.733Z,40.83
2019-02-09T06:06:30.993Z,31.93
2019-02-09T06:08:59.329Z,53.87
2019-02-09T06:11:27.826Z,47.67
2019-02-09T06:13:56.176Z,55.00
2019-02-09T06:16:24.389Z,59.17
2019-02-09T06:18:53.266Z,53.53
2019-02-09T06:21:21.609Z,36.73
2019-02-09T06:23:50.146Z,40.03
2019-02-09T06:26:18.550Z,38.13
2019-02-09T06:28:46.866Z,44.53
2019-02-09T06:31:15.126Z,37.17
2019-02-09T06:33:43.498Z,52.37
2019-02-09T06:36:11.819Z,33.07
2019-02-09T06:38:40.427Z,29.87
2019-02-09T06:41:08.835Z,34.37
2019-02-09T06:43:37.302Z,38.80
2019-02-09T06:46:05.867Z,39.97
2019-02-09T06:48:34.240Z,26.77
2019-02-09T06:51:02.674Z,44.57
2019-02-09T06:53:32.526Z,24.60
2019-02-09T06:59:17.274Z,30.80
2019-02-09T07:05:01.570Z,47.73
2019-02-09T07:10:46.106Z,51.70
2019-02-09T07:13:14.353Z,39.10
2019-02-09T07:15:42.674Z,36.50
2019-02-09T07:18:11.023Z,51.20
2019-02-09T07:20:39.325Z,44.23
2019-02-09T07:23:07.887Z,34.43
2019-02-09T07:28:51.912Z,30.03
2019-02-09T07:31:20.379Z,42.20
2019-02-09T07:33:48.639Z,44.50
2019-02-09T07:39:33.038Z,39.27
2019-02-09T07:42:01.499Z,47.43
2019-02-09T07:47:58.688Z,38.07
2019-02-09T07:53:42.698Z,61.17
2019-02-09T07:59:27.644Z,40.10
2019-02-09T08:01:56.004Z,44.07
2019-02-09T08:04:24.388Z,34.73
2019-02-09T08:06:52.778Z,63.57
2019-02-09T08:09:21.200Z,56.80
2019-02-09T08:11:49.478Z,52.00
2019-02-09T08:14:17.686Z,45.37
2019-02-09T08:16:45.996Z,51.27
2019-02-09T08:22:30.882Z,53.67
2019-02-09T08:24:59.280Z,56.87
2019-02-09T08:30:44.203Z,41.40
2019-02-09T08:36:29.235Z,61.70
2019-02-09T08:42:13.323Z,35.07
2019-02-09T08:44:41.746Z,48.87
2019-02-09T08:47:10.046Z,57.27
2019-02-09T08:49:38.346Z,53.40
2019-02-09T08:52:06.915Z,68.23
2019-02-09T08:54:35.369Z,58.07
2019-02-09T08:57:03.818Z,94.73
2019-02-09T08:59:32.151Z,67.07
2019-02-09T09:02:00.535Z,57.30
2019-02-09T09:04:29.090Z,39.47
2019-02-09T09:06:57.638Z,57.80
2019-02-09T09:09:25.994Z,48.50
2019-02-09T09:11:54.439Z,50.43
2019-02-09T09:14:22.854Z,49.53
2019-02-09T09:16:51.226Z,43.47
2019-02-09T09:19:19.564Z,46.17
2019-02-09T09:21:47.979Z,37.93
2019-02-09T09:24:16.598Z,31.83
2019-02-09T09:26:44.883Z,32.97
2019-02-09T09:29:13.191Z,35.40
2019-02-09T09:31:41.739Z,31.13
2019-02-09T09:34:10.222Z,47.70
2019-02-09T09:36:38.765Z,26.33
2019-02-09T09:39:08.300Z,57.97
2019-02-09T09:41:36.759Z,37.37
2019-02-09T09:44:05.258Z,24.77
2019-02-09T09:46:33.517Z,36.33
2019-02-09T09:49:01.978Z,32.93
2019-02-09T09:51:30.353Z,46.10
2019-02-09T09:53:58.761Z,32.40
2019-02-09T09:56:27.106Z,29.33
2019-02-09T09:58:55.492Z,47.10
2019-02-09T10:01:24.014Z,42.87
2019-02-09T10:03:52.371Z,38.70
2019-02-09T10:06:20.862Z,45.63
2019-02-09T10:08:49.322Z,30.27
2019-02-09T10:11:17.680Z,34.63
2019-02-09T10:13:46.063Z,23.50
2019-02-09T10:16:14.479Z,37.33
2019-02-09T10:18:42.874Z,30.37
2019-02-09T10:21:11.234Z,32.80
2019-02-09T10:23:39.613Z,34.23
2019-02-09T10:26:08.033Z,31.20
2019-02-09T10:28:36.495Z,34.43
2019-02-09T10:31:04.906Z,35.33
2019-02-09T10:33:33.354Z,32.43
2019-02-09T10:36:01.806Z,28.53
2019-02-09T10:38:30.219Z,33.00
2019-02-09T10:40:58.630Z,17.80
2019-02-09T10:43:26.985Z,32.80
2019-02-09T10:45:55.367Z,29.53
2019-02-09T10:48:23.661Z,28.63
2019-02-09T10:50:53.134Z,32.77
2019-02-09T10:53:21.576Z,35.03
2019-02-09T10:55:49.862Z,32.93
2019-02-09T10:58:18.270Z,39.40
2019-02-09T11:00:48.280Z,34.83
2019-02-09T11:03:16.738Z,35.90
2019-02-09T11:05:45.307Z,32.77
2019-02-09T11:08:13.648Z,33.87
2019-02-09T11:10:42.202Z,33.03
2019-02-09T11:13:10.517Z,30.53
2019-02-09T11:15:38.841Z,30.53
2019-02-09T11:18:07.288Z,33.00
2019-02-09T11:20:35.664Z,22.97
2019-02-09T11:23:04.613Z,29.37
2019-02-09T11:25:33.114Z,29.97
2019-02-09T11:28:02.915Z,35.33
2019-02-09T11:30:33.695Z,30.60
2019-02-09T11:33:02.735Z,26.50
2019-02-09T11:35:31.283Z,24.63
2019-02-09T11:37:59.805Z,29.63
2019-02-09T11:40:28.663Z,24.47
2019-02-09T11:42:57.638Z,24.87
2019-02-09T11:45:27.558Z,23.53
2019-02-09T11:47:55.986Z,25.93
2019-02-09T11:50:24.476Z,18.93
2019-02-09T11:52:53.680Z,28.83
2019-02-09T11:55:22.166Z,32.17
2019-02-09T11:57:50.855Z,30.93
2019-02-09T12:00:20.658Z,27.23
2019-02-09T12:02:49.234Z,33.93
2019-02-09T12:05:17.523Z,23.00
2019-02-09T12:07:46.014Z,30.20
2019-02-09T12:10:15.852Z,25.30
2019-02-09T12:12:44.211Z,28.07
2019-02-09T12:15:14.101Z,32.27
2019-02-09T12:17:42.571Z,28.97
2019-02-09T12:20:12.514Z,35.40
2019-02-09T12:22:40.918Z,23.30
2019-02-09T12:25:10.761Z,34.33
2019-02-09T12:27:39.194Z,31.73
2019-02-09T12:30:09.086Z,32.60
2019-02-09T12:32:37.506Z,31.73
2019-02-09T12:35:06.875Z,26.03
2019-02-09T12:37:35.277Z,29.77
2019-02-09T12:40:05.018Z,30.60
2019-02-09T12:42:33.475Z,31.00
2019-02-09T12:45:01.822Z,31.37
2019-02-09T12:47:31.175Z,30.47
2019-02-09T12:49:59.460Z,28.73
2019-02-09T12:52:27.826Z,33.13
2019-02-09T12:54:56.298Z,35.07
2019-02-09T12:57:24.726Z,25.40
2019-02-09T12:59:53.235Z,32.63
2019-02-09T13:02:21.598Z,25.03
2019-02-09T13:04:49.812Z,24.93
2019-02-09T13:07:18.190Z,28.47
2019-02-09T13:09:46.562Z,33.00
2019-02-09T13:12:14.894Z,24.20
2019-02-09T13:14:43.414Z,38.97
2019-02-09T13:17:11.826Z,29.80
2019-02-09T13:19:40.365Z,32.40
2019-02-09T13:22:08.787Z,20.83
2019-02-09T13:24:37.130Z,34.93
2019-02-09T13:27:05.634Z,25.73
2019-02-09T13:29:34.125Z,31.17
2019-02-09T13:32:02.575Z,35.93
2019-02-09T13:34:30.866Z,41.50
2019-02-09T13:36:59.180Z,30.77
2019-02-09T13:39:27.399Z,41.43
2019-02-09T13:41:55.994Z,27.27
2019-02-09T13:44:24.401Z,27.70
2019-02-09T13:46:52.862Z,33.50
2019-02-09T13:49:21.120Z,35.73
2019-02-09T13:51:50.019Z,33.97
2019-02-09T13:54:19.606Z,39.50
2019-02-09T13:56:48.139Z,28.43
2019-02-09T13:59:16.531Z,37.00
2019-02-09T14:01:44.869Z,38.10
2019-02-09T14:04:13.351Z,39.63
2019-02-09T14:06:41.727Z,40.80
2019-02-09T14:09:10.146Z,38.03
2019-02-09T14:11:39.158Z,38.20
2019-02-09T14:14:07.581Z,32.07
2019-02-09T14:16:38.724Z,42.23
2019-02-09T14:19:05.958Z,33.00
2019-02-09T14:21:34.301Z,31.17
2019-02-09T14:24:02.642Z,35.27
2019-02-09T14:26:30.962Z,24.20
2019-02-09T14:28:59.506Z,36.73
2019-02-09T14:31:27.889Z,41.90
2019-02-09T14:33:56.268Z,40.13
2019-02-09T14:36:24.639Z,43.07
2019-02-09T14:38:53.116Z,35.77
2019-02-09T14:41:21.462Z,38.43
2019-02-09T14:43:49.860Z,35.67
2019-02-09T14:46:18.219Z,30.53
2019-02-09T14:48:46.774Z,34.33
2019-02-09T14:51:15.141Z,31.03
2019-02-09T14:53:43.597Z,34.80
2019-02-09T14:56:11.947Z,28.70
2019-02-09T14:58:40.299Z,42.57
2019-02-09T15:01:08.853Z,29.17
2019-02-09T15:03:37.439Z,44.83
2019-02-09T15:06:05.803Z,29.70
2019-02-09T15:08:34.387Z,36.63
2019-02-09T15:11:02.790Z,29.67
2019-02-09T15:13:31.087Z,32.10
2019-02-09T15:16:00.858Z,33.20
2019-02-09T15:18:29.233Z,31.80
2019-02-09T15:20:59.108Z,39.97
2019-02-09T15:23:27.506Z,32.20
2019-02-09T15:25:55.850Z,27.87
2019-02-09T15:28:24.128Z,29.90
2019-02-09T15:30:52.624Z,29.63
2019-02-09T15:33:21.027Z,34.57
2019-02-09T15:35:49.369Z,33.30
2019-02-09T15:38:17.745Z,24.67
2019-02-09T15:40:46.498Z,24.93
2019-02-09T15:43:14.858Z,22.97
2019-02-09T15:45:43.099Z,25.40
2019-02-09T15:48:11.463Z,29.93
2019-02-09T15:50:40.021Z,25.67
2019-02-09T15:53:08.392Z,25.90
2019-02-09T15:55:36.866Z,35.50
2019-02-09T15:58:05.509Z,31.10
2019-02-09T16:00:34.103Z,30.13
2019-02-09T16:03:02.634Z,31.23
2019-02-09T16:05:30.940Z,31.93
2019-02-09T16:07:59.314Z,38.40
2019-02-09T16:10:27.940Z,33.77
2019-02-09T16:12:56.305Z,27.43
2019-02-09T16:15:26.206Z,28.07
2019-02-09T16:17:54.856Z,23.93
2019-02-09T16:20:24.770Z,32.17
2019-02-09T16:22:53.093Z,29.23
2019-02-09T16:25:21.558Z,28.93
2019-02-09T16:27:50.068Z,28.33
2019-02-09T16:30:19.924Z,27.23
2019-02-09T16:32:48.414Z,27.50
2019-02-09T16:35:17.907Z,31.93
2019-02-09T16:37:46.437Z,28.70
2019-02-09T16:40:16.278Z,34.80
2019-02-09T16:42:44.685Z,28.37
2019-02-09T16:45:14.946Z,32.27
2019-02-09T16:47:43.359Z,26.40
2019-02-09T16:50:12.384Z,26.60
2019-02-09T16:52:40.865Z,22.57
2019-02-09T16:55:11.704Z,25.73
2019-02-09T16:57:40.159Z,31.63
2019-02-09T17:00:10.061Z,37.57
2019-02-09T17:02:38.842Z,34.30
2019-02-09T17:05:07.679Z,30.47
2019-02-09T17:07:36.138Z,22.60
2019-02-09T17:10:06.094Z,29.37
2019-02-09T17:12:34.466Z,27.77
2019-02-09T17:15:03.043Z,26.50
2019-02-09T17:17:31.419Z,34.83
2019-02-09T17:19:59.898Z,20.67
2019-02-09T17:22:28.298Z,22.07
2019-02-09T17:24:56.495Z,28.83
2019-02-09T17:27:24.755Z,33.27
2019-02-09T17:29:53.116Z,22.50
2019-02-09T17:32:21.614Z,39.30
2019-02-09T17:34:50.129Z,52.67
2019-02-09T17:37:18.447Z,35.03
2019-02-09T17:39:46.839Z,32.93
2019-02-09T17:42:15.191Z,44.30
2019-02-09T17:44:43.616Z,29.60
2019-02-09T17:47:12.095Z,26.97
2019-02-09T17:49:40.567Z,35.20
2019-02-09T17:52:09.154Z,36.63
2019-02-09T17:54:37.566Z,38.60
2019-02-09T17:57:06.115Z,28.77
2019-02-09T17:59:34.478Z,30.90
2019-02-09T18:02:02.874Z,26.90
2019-02-09T18:04:31.248Z,23.20
2019-02-09T18:06:59.509Z,24.87
2019-02-09T18:09:27.946Z,26.03
2019-02-09T18:11:56.221Z,30.13
2019-02-09T18:14:24.674Z,29.07
2019-02-09T18:16:53.066Z,23.10
2019-02-09T18:19:21.467Z,33.27
2019-02-09T18:21:49.866Z,31.23
2019-02-09T18:24:18.173Z,25.03
2019-02-09T18:26:46.398Z,30.53
2019-02-09T18:29:15.039Z,29.93
2019-02-09T18:31:43.508Z,26.70
2019-02-09T18:34:11.854Z,25.07
2019-02-09T18:36:40.266Z,30.30
2019-02-09T18:39:10.014Z,27.63
2019-02-09T18:41:38.486Z,13.93
2019-02-09T18:44:06.974Z,32.03
2019-02-09T18:46:35.357Z,27.73
2019-02-09T18:49:04.234Z,35.97
2019-02-09T18:51:32.606Z,27.00
2019-02-09T18:54:01.075Z,31.67
2019-02-09T18:56:30.419Z,28.93
2019-02-09T18:58:58.874Z,32.33
2019-02-09T19:01:27.178Z,31.80
2019-02-09T19:03:57.597Z,22.67
2019-02-09T19:06:25.839Z,20.77
2019-02-09T19:08:54.386Z,20.77
2019-02-09T19:11:22.738Z,27.40
2019-02-09T19:13:51.304Z,27.67
2019-02-09T19:16:19.771Z,32.00
2019-02-09T19:18:48.364Z,34.50
2019-02-09T19:21:16.874Z,21.33
2019-02-09T19:23:45.449Z,15.33
2019-02-09T19:26:14.035Z,26.80
2019-02-09T19:28:42.458Z,33.33
2019-02-09T19:31:10.901Z,30.83
2019-02-09T19:33:39.356Z,34.60
2019-02-09T19:36:07.819Z,33.37
2019-02-09T19:38:36.221Z,35.33
2019-02-09T19:41:04.558Z,32.87
2019-02-09T19:43:32.994Z,18.77
2019-02-09T19:46:01.457Z,30.83
2019-02-09T19:48:29.955Z,41.57
2019-02-09T19:50:58.202Z,35.07
2019-02-09T19:53:26.714Z,34.93
2019-02-09T19:55:55.315Z,33.33
2019-02-09T19:58:23.743Z,30.40
2019-02-09T20:00:52.255Z,35.70
2019-02-09T20:03:20.566Z,26.27
2019-02-09T20:05:48.947Z,31.80
2019-02-09T20:08:17.388Z,31.40
2019-02-09T20:10:45.874Z,33.17
2019-02-09T20:13:14.626Z,33.07
2019-02-09T20:15:43.054Z,33.23
2019-02-09T20:18:11.610Z,34.10
2019-02-09T20:20:46.840Z,31.83
2019-02-09T20:23:10.324Z,33.53
2019-02-09T20:25:39.665Z,45.77
2019-02-09T20:28:08.186Z,37.57
2019-02-09T20:30:37.496Z,35.57
2019-02-09T20:33:06.004Z,39.47
2019-02-09T20:35:35.386Z,28.63
2019-02-09T20:38:04.787Z,32.53
2019-02-09T20:40:34.674Z,37.40
2019-02-09T20:43:04.381Z,26.23
2019-02-09T20:45:34.229Z,33.73
2019-02-09T20:48:03.035Z,32.90
2019-02-09T20:50:31.555Z,37.67
2019-02-09T20:53:00.007Z,36.13
2019-02-09T20:55:28.427Z,29.23
2019-02-09T20:57:56.821Z,26.70
2019-02-09T21:00:26.667Z,30.17
2019-02-09T21:02:55.183Z,35.43
2019-02-09T21:05:24.141Z,26.93
2019-02-09T21:07:52.847Z,29.80
2019-02-09T21:10:22.383Z,38.20
2019-02-09T21:12:51.306Z,25.97
2019-02-09T21:15:21.086Z,42.67
2019-02-09T21:17:49.709Z,31.73
2019-02-09T21:20:19.541Z,31.60
2019-02-09T21:22:48.061Z,35.63
2019-02-09T21:25:17.721Z,33.07
2019-02-09T21:27:46.213Z,29.20
2019-02-09T21:30:16.234Z,27.80
2019-02-09T21:32:44.578Z,32.10
2019-02-09T21:35:14.058Z,34.30
2019-02-09T21:37:42.499Z,34.53
2019-02-09T21:40:12.421Z,27.13
2019-02-09T21:42:40.957Z,35.73
2019-02-09T21:45:11.234Z,36.27
2019-02-09T21:47:39.722Z,33.50
2019-02-09T21:50:09.659Z,33.30
2019-02-09T21:52:39.136Z,37.30
2019-02-09T21:55:09.354Z,35.73
2019-02-09T21:57:37.778Z,37.37
2019-02-09T22:00:07.686Z,37.97
2019-02-09T22:02:42.301Z,36.47
2019-02-09T22:05:08.583Z,35.17
2019-02-09T22:07:37.010Z,30.77
2019-02-09T22:10:06.995Z,26.67
2019-02-09T22:12:35.654Z,32.43
2019-02-09T22:15:05.684Z,31.37
2019-02-09T22:17:34.320Z,28.67
2019-02-09T22:20:02.697Z,30.40
2019-02-09T22:22:31.786Z,31.10
2019-02-09T22:25:00.551Z,28.87
2019-02-09T22:27:28.884Z,21.97
2019-02-09T22:29:57.181Z,33.13
2019-02-09T22:32:25.692Z,36.60
2019-02-09T22:34:54.045Z,37.70
2019-02-09T22:37:23.824Z,43.67
2019-02-09T22:39:52.331Z,24.67
2019-02-09T22:42:20.747Z,21.73
2019-02-09T22:44:49.354Z,40.60
2019-02-09T22:47:17.632Z,27.00
2019-02-09T22:49:47.066Z,34.90
2019-02-09T22:52:15.486Z,20.87
2019-02-09T22:54:43.918Z,30.23
2019-02-09T22:57:12.354Z,31.97
2019-02-09T22:59:40.652Z,34.57
2019-02-09T23:02:09.634Z,30.97
2019-02-09T23:04:39.453Z,35.00
2019-02-09T23:07:08.331Z,35.23
2019-02-09T23:09:36.910Z,34.80
2019-02-09T23:12:05.356Z,31.90
2019-02-09T23:14:33.716Z,31.03
2019-02-09T23:17:02.114Z,32.33
2019-02-09T23:19:30.753Z,37.37
2019-02-09T23:21:59.218Z,36.60
2019-02-09T23:24:27.607Z,35.67
2019-02-09T23:26:57.099Z,31.60
2019-02-09T23:29:25.594Z,34.00
2019-02-09T23:31:53.918Z,30.27
2019-02-09T23:34:22.280Z,25.60
2019-02-09T23:36:50.738Z,31.90
2019-02-09T23:39:19.102Z,37.10
2019-02-09T23:41:47.638Z,28.97
2019-02-09T23:44:16.194Z,30.83
2019-02-09T23:46:44.656Z,47.10
2019-02-09T23:49:12.824Z,35.67
2019-02-09T23:51:41.211Z,44.97
2019-02-09T23:54:09.651Z,39.37
2019-02-09T23:56:38.074Z,39.77
2019-02-09T23:59:06.554Z,34.53
